Terminal Aerodrome Forecast
Issued by NWS El Paso, TX

Home | Current Version | Previous Version | Text Only | Print | Product List | Glossary On
Versions: 1 2 3 4 5 6 7 8 9 10 11 12 13 14
000
FTUS44 KEPZ 300546
TAFELP
TAF
KELP 300546Z 3006/0106 10015G25KT P6SM FEW070 BKN120
      TEMPO 3006/3008 -TSRA FEW030 BKN070CB
     FM300800 12008KT P6SM FEW070 BKN250
     FM301900 11010KT P6SM SCT080 SCT250=

USA.gov is the U.S. government's official web portal to all federal, state and local government web resources and services.